Time;durP1;ratioP1;P1;durP2;ratioP2;P2;SDS_P1;SDS_P2;PMS_P1;PMS_P2;Temp;Humidity;BMP_temperature;BMP_pressure;BME280_temperature;BME280_humidity;BME280_pressure;Samples;Min_cycle;Max_cycle;Signal;HPM_P1;HPM_P2
2021/08/18 00:01:58;;;;;;;;;;;16.10;99.90;;;;;;5096452;28;19904;-67
2021/08/18 00:04:24;;;;;;;;;;;16.10;99.90;;;;;;5094745;28;20276;-67
2021/08/18 00:06:49;;;;;;;;;;;16.10;99.90;;;;;;5096122;28;19911;-67
2021/08/18 00:09:15;;;;;;;;;;;16.10;99.90;;;;;;5095895;28;19908;-67
2021/08/18 00:11:40;;;;;;;;;;;16.10;99.90;;;;;;5095678;28;19918;-67
2021/08/18 00:14:06;;;;;;;;;;;16.10;99.90;;;;;;5095713;28;19961;-67
2021/08/18 00:16:32;;;;;;;;;;;16.10;99.90;;;;;;5095323;28;19908;-67
2021/08/18 00:18:57;;;;;;;;;;;16.10;99.90;;;;;;5094580;28;19990;-67
2021/08/18 00:21:23;;;;;;;;;;;16.10;99.90;;;;;;5096237;28;19910;-67
2021/08/18 00:23:49;;;;;;;;;;;16.10;99.90;;;;;;5095793;28;19930;-67
2021/08/18 00:26:15;;;;;;;;;;;16.10;99.90;;;;;;5096095;28;19907;-66
2021/08/18 00:28:41;;;;;;;;;;;16.20;99.90;;;;;;5094425;28;19904;-67
2021/08/18 00:31:06;;;;;;;;;;;16.10;99.90;;;;;;5094088;28;20018;-67
2021/08/18 00:33:32;;;;;;;;;;;16.10;99.90;;;;;;5095398;28;19904;-67
2021/08/18 00:35:58;;;;;;;;;;;16.10;99.90;;;;;;5093812;28;19904;-67
2021/08/18 00:38:24;;;;;;;;;;;16.10;99.90;;;;;;5095421;28;19935;-66
2021/08/18 00:40:49;;;;;;;;;;;16.10;99.90;;;;;;5095459;28;19915;-66
2021/08/18 00:43:15;;;;;;;;;;;16.10;99.90;;;;;;5095346;28;19969;-66
2021/08/18 00:45:41;;;;;;;;;;;16.10;99.90;;;;;;5095004;28;19911;-66
2021/08/18 00:48:06;;;;;;;;;;;16.10;99.90;;;;;;5094900;28;20357;-66
2021/08/18 00:50:32;;;;;;;;;;;16.10;99.90;;;;;;5094855;28;19940;-67
2021/08/18 00:52:58;;;;;;;;;;;16.10;99.90;;;;;;5093557;28;19904;-67
2021/08/18 00:55:24;;;;;;;;;;;16.10;99.90;;;;;;5094815;28;19969;-65
2021/08/18 00:57:50;;;;;;;;;;;16.10;99.90;;;;;;5094588;28;20489;-65
2021/08/18 01:00:17;;;;;;;;;;;16.10;99.90;;;;;;5094635;28;20281;-66
2021/08/18 01:02:45;;;;;;;;;;;16.10;99.90;;;;;;5094575;28;19904;-66
2021/08/18 01:05:21;;;;;;;;;;;16.10;99.90;;;;;;5094866;28;20353;-66
2021/08/18 01:07:47;;;;;;;;;;;16.10;99.90;;;;;;5094881;28;19904;-66
2021/08/18 01:10:13;;;;;;;;;;;16.00;99.90;;;;;;5094893;28;20407;-66
2021/08/18 01:12:39;;;;;;;;;;;16.00;99.90;;;;;;5094482;28;20280;-66
2021/08/18 01:15:06;;;;;;;;;;;16.00;99.90;;;;;;5094480;28;19908;-66
2021/08/18 01:17:33;;;;;;;;;;;16.00;99.90;;;;;;5094351;28;19915;-66
2021/08/18 01:19:59;;;;;;;;;;;15.90;99.90;;;;;;5094203;28;19945;-66
2021/08/18 01:22:25;;;;;;;;;;;16.00;99.90;;;;;;5094403;28;19904;-66
2021/08/18 01:24:50;;;;;;;;;;;16.00;99.90;;;;;;5094142;28;19904;-66
2021/08/18 01:27:16;;;;;;;;;;;16.00;99.90;;;;;;5093276;28;20406;-66
2021/08/18 01:29:42;;;;;;;;;;;16.00;99.90;;;;;;5094277;28;19927;-66
2021/08/18 01:32:08;;;;;;;;;;;16.00;99.90;;;;;;5094595;28;20357;-66
2021/08/18 01:34:35;;;;;;;;;;;16.00;99.90;;;;;;5094146;28;19911;-66
2021/08/18 01:37:01;;;;;;;;;;;16.00;99.90;;;;;;5094343;28;20271;-66
2021/08/18 01:39:26;;;;;;;;;;;16.00;99.90;;;;;;5093412;28;19908;-66
2021/08/18 01:41:52;;;;;;;;;;;16.00;99.90;;;;;;5094432;28;19904;-66
2021/08/18 01:44:17;;;;;;;;;;;15.90;99.90;;;;;;5093970;28;19956;-66
2021/08/18 01:46:43;;;;;;;;;;;16.00;99.90;;;;;;5094072;28;19904;-66
2021/08/18 01:49:08;;;;;;;;;;;16.10;99.90;;;;;;5093876;28;20359;-66
2021/08/18 01:51:34;;;;;;;;;;;16.00;99.90;;;;;;5093768;28;20317;-66
2021/08/18 01:53:59;;;;;;;;;;;16.00;99.90;;;;;;5093881;28;20371;-67
2021/08/18 01:56:25;;;;;;;;;;;15.90;99.90;;;;;;5093579;28;20018;-66
2021/08/18 01:58:50;;;;;;;;;;;15.80;99.90;;;;;;5093680;28;19904;-66
2021/08/18 02:01:16;;;;;;;;;;;15.70;99.90;;;;;;5094084;28;19922;-65
2021/08/18 02:03:42;;;;;;;;;;;15.70;99.90;;;;;;5093880;28;19961;-65
2021/08/18 02:06:08;;;;;;;;;;;15.80;99.90;;;;;;5093479;28;19904;-66
2021/08/18 02:08:33;;;;;;;;;;;15.90;99.90;;;;;;5093515;28;19911;-66
2021/08/18 02:10:59;;;;;;;;;;;16.00;99.90;;;;;;5093369;28;19986;-66
2021/08/18 02:13:25;;;;;;;;;;;16.00;99.90;;;;;;5091860;28;19995;-66
2021/08/18 02:15:50;;;;;;;;;;;16.00;99.90;;;;;;5093762;28;19904;-64
2021/08/18 02:18:16;;;;;;;;;;;16.00;99.90;;;;;;5093228;28;19915;-63
2021/08/18 02:20:43;;;;;;;;;;;16.10;99.90;;;;;;5093205;28;19909;-64
2021/08/18 02:23:08;;;;;;;;;;;16.00;99.90;;;;;;5093132;28;19904;-64
2021/08/18 02:25:34;;;;;;;;;;;16.10;99.90;;;;;;5093121;28;20466;-64
2021/08/18 02:28:00;;;;;;;;;;;16.00;99.90;;;;;;5093295;28;19994;-63
2021/08/18 02:30:26;;;;;;;;;;;16.00;99.90;;;;;;5092955;28;19969;-64
2021/08/18 02:32:52;;;;;;;;;;;15.90;99.90;;;;;;5092879;28;19904;-64
2021/08/18 02:35:18;;;;;;;;;;;15.90;99.90;;;;;;5092974;28;19911;-64
2021/08/18 02:37:47;;;;;;;;;;;15.80;99.90;;;;;;5092599;28;20361;-63
2021/08/18 02:40:16;;;;;;;;;;;15.80;99.90;;;;;;5092988;28;19929;-62
2021/08/18 02:42:42;;;;;;;;;;;15.80;99.90;;;;;;5093059;28;19904;-63
2021/08/18 02:45:08;;;;;;;;;;;15.80;99.90;;;;;;5092777;28;19910;-63
2021/08/18 02:47:34;;;;;;;;;;;15.80;99.90;;;;;;5093316;28;20244;-63
2021/08/18 02:49:59;;;;;;;;;;;15.80;99.90;;;;;;5092750;28;19910;-60
2021/08/18 02:52:25;;;;;;;;;;;15.80;99.90;;;;;;5092760;28;19998;-62
2021/08/18 02:54:50;;;;;;;;;;;15.80;99.90;;;;;;5092606;28;19961;-63
2021/08/18 02:57:16;;;;;;;;;;;15.80;99.90;;;;;;5092885;28;19915;-63
2021/08/18 02:59:41;;;;;;;;;;;15.80;99.90;;;;;;5093005;28;19904;-63
2021/08/18 03:02:07;;;;;;;;;;;15.80;99.90;;;;;;5091525;28;19966;-64
2021/08/18 03:04:32;;;;;;;;;;;15.80;99.90;;;;;;5092669;28;19904;-63
2021/08/18 03:06:58;;;;;;;;;;;15.80;99.90;;;;;;5093026;28;19920;-63
2021/08/18 03:09:24;;;;;;;;;;;16.00;99.90;;;;;;5092715;28;19904;-63
2021/08/18 03:11:53;;;;;;;;;;;15.90;99.90;;;;;;5092624;28;19962;-64
2021/08/18 03:14:18;;;;;;;;;;;15.90;99.90;;;;;;5092556;28;19911;-64
2021/08/18 03:16:44;;;;;;;;;;;15.80;99.90;;;;;;5091150;28;19908;-63
2021/08/18 03:19:10;;;;;;;;;;;15.90;99.90;;;;;;5092546;28;19916;-64
2021/08/18 03:21:35;;;;;;;;;;;16.00;99.90;;;;;;5092569;28;19990;-63
2021/08/18 03:24:01;;;;;;;;;;;16.00;99.90;;;;;;5092307;28;19984;-63
2021/08/18 03:26:26;;;;;;;;;;;16.10;99.90;;;;;;5092416;28;19911;-62
2021/08/18 03:28:52;;;;;;;;;;;16.00;99.90;;;;;;5092770;28;19957;-64
2021/08/18 03:31:17;;;;;;;;;;;15.90;99.90;;;;;;5093135;28;19947;-63
2021/08/18 03:33:43;;;;;;;;;;;15.80;99.90;;;;;;5092245;28;19994;-64
2021/08/18 03:36:08;;;;;;;;;;;15.80;99.90;;;;;;5092475;28;20264;-64
2021/08/18 03:38:35;;;;;;;;;;;15.90;99.90;;;;;;5092429;28;19904;-63
2021/08/18 03:41:01;;;;;;;;;;;15.90;99.90;;;;;;5092302;28;19904;-64
2021/08/18 03:43:26;;;;;;;;;;;15.90;99.90;;;;;;5092296;28;20003;-64
2021/08/18 03:45:52;;;;;;;;;;;15.90;99.90;;;;;;5092583;28;19956;-64
2021/08/18 03:48:17;;;;;;;;;;;15.90;99.90;;;;;;5092322;28;19912;-64
2021/08/18 03:50:43;;;;;;;;;;;16.00;99.90;;;;;;5094231;28;20007;-64
2021/08/18 03:53:08;;;;;;;;;;;15.90;99.90;;;;;;5096237;28;19922;-64
2021/08/18 03:55:34;;;;;;;;;;;15.90;99.90;;;;;;5096088;28;19908;-64
2021/08/18 03:58:00;;;;;;;;;;;15.80;99.90;;;;;;5095755;28;19907;-64
2021/08/18 04:00:26;;;;;;;;;;;15.80;99.90;;;;;;5095828;28;19939;-64
2021/08/18 04:02:51;;;;;;;;;;;15.80;99.90;;;;;;5095968;28;20286;-64
2021/08/18 04:05:17;;;;;;;;;;;15.70;99.90;;;;;;5096376;28;19961;-64
2021/08/18 04:07:42;;;;;;;;;;;15.70;99.90;;;;;;5095980;28;20048;-64
2021/08/18 04:10:08;;;;;;;;;;;15.80;99.90;;;;;;5096127;28;19978;-64
2021/08/18 04:12:51;;;;;;;;;;;15.70;99.90;;;;;;5095560;28;19915;-63
2021/08/18 04:15:16;;;;;;;;;;;15.70;99.90;;;;;;5096068;28;19923;-64
2021/08/18 04:17:42;;;;;;;;;;;15.70;99.90;;;;;;5094158;28;20229;-64
2021/08/18 04:20:08;;;;;;;;;;;15.60;99.90;;;;;;5096005;28;19945;-64
2021/08/18 04:22:33;;;;;;;;;;;15.60;99.90;;;;;;5095362;28;19903;-64
2021/08/18 04:24:59;;;;;;;;;;;15.70;99.90;;;;;;5098042;28;19920;-65
2021/08/18 04:27:24;;;;;;;;;;;15.80;99.90;;;;;;5098507;28;19908;-64
2021/08/18 04:29:50;;;;;;;;;;;15.70;99.90;;;;;;5095854;28;19923;-63
2021/08/18 04:32:15;;;;;;;;;;;15.70;99.90;;;;;;5094017;28;20353;-64
2021/08/18 04:34:41;;;;;;;;;;;15.80;99.90;;;;;;5095478;28;19904;-63
2021/08/18 04:37:06;;;;;;;;;;;15.80;99.90;;;;;;5095020;28;19908;-62
2021/08/18 04:39:32;;;;;;;;;;;15.80;99.90;;;;;;5095043;28;19911;-63
2021/08/18 04:41:57;;;;;;;;;;;15.70;99.90;;;;;;5095096;28;19953;-63
2021/08/18 04:44:23;;;;;;;;;;;15.60;99.90;;;;;;5095124;28;19954;-63
2021/08/18 04:46:48;;;;;;;;;;;15.80;99.90;;;;;;5093826;28;19957;-63
2021/08/18 04:49:14;;;;;;;;;;;15.70;99.90;;;;;;5093762;28;19911;-63
2021/08/18 04:51:39;;;;;;;;;;;15.70;99.90;;;;;;5094695;28;19955;-63
2021/08/18 04:54:05;;;;;;;;;;;15.70;99.90;;;;;;5094699;28;20319;-63
2021/08/18 04:56:30;;;;;;;;;;;15.70;99.90;;;;;;5094770;28;20359;-65
2021/08/18 04:58:56;;;;;;;;;;;15.70;99.90;;;;;;5095144;28;19983;-64
2021/08/18 05:01:21;;;;;;;;;;;15.80;99.90;;;;;;5094774;28;19904;-64
2021/08/18 05:03:47;;;;;;;;;;;15.80;99.90;;;;;;5095915;28;19904;-63
2021/08/18 05:06:12;;;;;;;;;;;15.70;99.90;;;;;;5094773;28;19951;-63
2021/08/18 05:08:38;;;;;;;;;;;15.70;99.90;;;;;;5094509;28;19904;-63
2021/08/18 05:11:03;;;;;;;;;;;15.60;99.90;;;;;;5094477;28;19907;-63
2021/08/18 05:13:29;;;;;;;;;;;15.60;99.90;;;;;;5094495;28;19904;-63
2021/08/18 05:15:54;;;;;;;;;;;15.60;99.90;;;;;;5094417;28;20006;-63
2021/08/18 05:18:20;;;;;;;;;;;15.70;99.90;;;;;;5094317;28;19908;-63
2021/08/18 05:20:45;;;;;;;;;;;15.70;99.90;;;;;;5094354;28;20445;-63
2021/08/18 05:23:11;;;;;;;;;;;15.60;99.90;;;;;;5094402;28;19904;-64
2021/08/18 05:25:36;;;;;;;;;;;15.60;99.90;;;;;;5094411;28;19911;-64
2021/08/18 05:28:05;;;;;;;;;;;15.70;99.90;;;;;;5093121;28;19904;-64
2021/08/18 05:30:30;;;;;;;;;;;15.60;99.90;;;;;;5095089;28;20003;-63
2021/08/18 05:32:56;;;;;;;;;;;15.60;99.90;;;;;;5094515;28;19948;-64
2021/08/18 05:35:21;;;;;;;;;;;15.60;99.90;;;;;;5094191;28;19904;-64
2021/08/18 05:37:47;;;;;;;;;;;15.50;99.90;;;;;;5094799;28;19955;-64
2021/08/18 05:40:13;;;;;;;;;;;15.50;99.90;;;;;;5092805;28;20323;-65
2021/08/18 05:42:38;;;;;;;;;;;15.50;99.90;;;;;;5094320;28;20348;-65
2021/08/18 05:45:05;;;;;;;;;;;15.60;99.90;;;;;;5092838;28;20003;-65
2021/08/18 05:47:32;;;;;;;;;;;15.60;99.90;;;;;;5092512;28;19904;-65
2021/08/18 05:49:57;;;;;;;;;;;15.50;99.90;;;;;;5094443;28;20226;-64
2021/08/18 05:52:23;;;;;;;;;;;15.50;99.90;;;;;;5093794;28;19919;-65
2021/08/18 05:54:48;;;;;;;;;;;15.50;99.90;;;;;;5094093;28;20018;-63
2021/08/18 05:57:15;;;;;;;;;;;15.50;99.90;;;;;;5094503;28;19972;-65
2021/08/18 05:59:40;;;;;;;;;;;15.60;99.90;;;;;;5093831;28;19916;-65
2021/08/18 06:02:06;;;;;;;;;;;15.60;99.90;;;;;;5093836;28;19939;-65
2021/08/18 06:04:31;;;;;;;;;;;15.60;99.90;;;;;;5093640;28;19904;-63
2021/08/18 06:06:57;;;;;;;;;;;15.60;99.90;;;;;;5093829;28;19947;-64
2021/08/18 06:09:22;;;;;;;;;;;15.60;99.90;;;;;;5092263;28;19904;-64
2021/08/18 06:11:48;;;;;;;;;;;15.60;99.90;;;;;;5093865;28;20003;-64
2021/08/18 06:14:13;;;;;;;;;;;15.60;99.90;;;;;;5093161;28;20241;-64
2021/08/18 06:16:39;;;;;;;;;;;15.70;99.90;;;;;;5093427;28;19910;-64
2021/08/18 06:19:04;;;;;;;;;;;15.70;99.90;;;;;;5093473;28;20250;-64
2021/08/18 06:21:30;;;;;;;;;;;15.70;99.90;;;;;;5093474;28;19904;-64
2021/08/18 06:24:02;;;;;;;;;;;15.80;99.90;;;;;;5093336;28;19909;-64
2021/08/18 06:26:28;;;;;;;;;;;15.80;99.90;;;;;;5093547;28;20394;-64
2021/08/18 06:28:53;;;;;;;;;;;15.80;99.90;;;;;;5093370;28;19904;-64
2021/08/18 06:31:19;;;;;;;;;;;15.80;99.90;;;;;;5093199;28;19953;-64
2021/08/18 06:33:44;;;;;;;;;;;15.80;99.90;;;;;;5093231;28;19904;-64
2021/08/18 06:36:10;;;;;;;;;;;15.80;99.90;;;;;;5093209;28;19904;-65
2021/08/18 06:38:35;;;;;;;;;;;15.80;99.90;;;;;;5093375;28;20015;-64
2021/08/18 06:41:01;;;;;;;;;;;15.90;99.90;;;;;;5093736;28;19908;-64
2021/08/18 06:43:26;;;;;;;;;;;16.00;99.90;;;;;;5093290;28;19916;-63
2021/08/18 06:45:52;;;;;;;;;;;16.00;99.90;;;;;;5093710;28;20357;-64
2021/08/18 06:48:17;;;;;;;;;;;15.90;99.90;;;;;;5094038;28;19904;-63
2021/08/18 06:50:43;;;;;;;;;;;16.00;99.90;;;;;;5093682;28;19991;-63
2021/08/18 06:53:08;;;;;;;;;;;16.10;99.90;;;;;;5093558;28;19908;-64
2021/08/18 06:55:35;;;;;;;;;;;16.10;99.90;;;;;;5093862;28;19905;-64
2021/08/18 06:58:00;;;;;;;;;;;16.20;99.90;;;;;;5093770;28;20402;-64
2021/08/18 07:00:26;;;;;;;;;;;16.20;99.90;;;;;;5092989;28;19912;-64
2021/08/18 07:02:51;;;;;;;;;;;16.20;99.90;;;;;;5092954;28;19912;-64
2021/08/18 07:05:18;;;;;;;;;;;16.20;99.90;;;;;;5092992;28;19927;-64
2021/08/18 07:07:44;;;;;;;;;;;16.20;99.90;;;;;;5094958;28;19929;-64
2021/08/18 07:10:10;;;;;;;;;;;16.20;99.90;;;;;;5093881;28;19904;-64
2021/08/18 07:12:36;;;;;;;;;;;16.20;99.90;;;;;;5092657;28;19963;-64
2021/08/18 07:15:01;;;;;;;;;;;16.20;99.90;;;;;;5091839;28;19904;-65
2021/08/18 07:17:27;;;;;;;;;;;16.20;99.90;;;;;;5093088;28;19969;-64
2021/08/18 07:19:52;;;;;;;;;;;16.30;99.90;;;;;;5092856;28;19940;-64
2021/08/18 07:22:18;;;;;;;;;;;16.30;99.90;;;;;;5093002;28;19904;-64
2021/08/18 07:24:43;;;;;;;;;;;16.40;99.90;;;;;;5093152;28;19904;-64
2021/08/18 07:27:09;;;;;;;;;;;16.40;99.90;;;;;;5096835;28;19904;-64
2021/08/18 07:29:34;;;;;;;;;;;16.40;99.90;;;;;;5096528;28;20381;-64
2021/08/18 07:32:00;;;;;;;;;;;16.50;99.90;;;;;;5096703;28;20324;-65
2021/08/18 07:34:25;;;;;;;;;;;16.50;99.90;;;;;;5096429;28;19927;-65
2021/08/18 07:36:51;;;;;;;;;;;16.60;99.90;;;;;;5096655;28;19916;-65
2021/08/18 07:39:16;;;;;;;;;;;16.60;99.90;;;;;;5095298;28;19951;-65
2021/08/18 07:41:42;;;;;;;;;;;16.60;99.90;;;;;;5096574;28;19904;-64
2021/08/18 07:44:07;;;;;;;;;;;16.60;99.90;;;;;;5096309;28;19943;-63
2021/08/18 07:46:33;;;;;;;;;;;16.50;99.90;;;;;;5096985;28;19904;-63
2021/08/18 07:48:58;;;;;;;;;;;16.50;99.90;;;;;;5096512;28;20016;-64
2021/08/18 07:51:24;;;;;;;;;;;16.50;99.90;;;;;;5096337;28;20280;-64
2021/08/18 07:53:49;;;;;;;;;;;16.60;99.90;;;;;;5096355;28;19904;-64
2021/08/18 07:56:15;;;;;;;;;;;16.60;99.90;;;;;;5095989;28;20365;-64
2021/08/18 07:58:40;;;;;;;;;;;16.60;99.90;;;;;;5096203;28;19937;-64
2021/08/18 08:01:06;;;;;;;;;;;16.60;99.90;;;;;;5096292;28;19966;-64
2021/08/18 08:03:32;;;;;;;;;;;16.70;99.90;;;;;;5096565;28;20375;-64
2021/08/18 08:05:57;;;;;;;;;;;16.80;99.90;;;;;;5096316;28;19965;-63
2021/08/18 08:08:23;;;;;;;;;;;16.80;99.90;;;;;;5095960;28;20326;-63
2021/08/18 08:10:49;;;;;;;;;;;16.80;99.90;;;;;;5095981;28;19908;-64
2021/08/18 08:13:17;;;;;;;;;;;16.80;99.90;;;;;;5095751;28;20349;-64
2021/08/18 08:15:43;;;;;;;;;;;16.90;99.90;;;;;;5096438;28;19911;-63
2021/08/18 08:18:09;;;;;;;;;;;16.80;99.90;;;;;;5094750;28;19908;-62
2021/08/18 08:20:34;;;;;;;;;;;17.00;99.90;;;;;;5095702;28;20299;-63
2021/08/18 08:23:01;;;;;;;;;;;17.00;99.90;;;;;;5095510;28;20011;-63
2021/08/18 08:25:27;;;;;;;;;;;17.10;99.90;;;;;;5096089;28;19930;-63
2021/08/18 08:27:53;;;;;;;;;;;17.20;99.90;;;;;;5095600;28;19904;-62
2021/08/18 08:30:18;;;;;;;;;;;17.20;99.90;;;;;;5096187;28;19927;-63
2021/08/18 08:32:44;;;;;;;;;;;17.30;99.90;;;;;;5096372;28;20246;-62
2021/08/18 08:35:10;;;;;;;;;;;17.60;99.90;;;;;;5096166;28;20306;-62
2021/08/18 08:37:35;;;;;;;;;;;17.80;99.90;;;;;;5096778;28;19978;-63
2021/08/18 08:40:01;;;;;;;;;;;17.90;99.90;;;;;;5095697;28;20311;-63
2021/08/18 08:42:27;;;;;;;;;;;17.90;99.90;;;;;;5096487;28;19910;-63
2021/08/18 08:44:53;;;;;;;;;;;17.80;99.90;;;;;;5096562;28;19950;-63
2021/08/18 08:47:18;;;;;;;;;;;17.80;99.90;;;;;;5096515;28;20376;-63
2021/08/18 08:49:44;;;;;;;;;;;17.80;99.90;;;;;;5095764;28;19904;-63
2021/08/18 08:52:12;;;;;;;;;;;17.70;99.90;;;;;;5095370;28;19918;-63
2021/08/18 08:54:39;;;;;;;;;;;17.70;99.90;;;;;;5095597;28;19908;-64
2021/08/18 08:57:04;;;;;;;;;;;17.70;99.90;;;;;;5095345;28;19908;-64
2021/08/18 08:59:31;;;;;;;;;;;17.80;99.90;;;;;;5095674;28;19972;-63
2021/08/18 09:02:02;;;;;;;;;;;17.90;99.90;;;;;;5095224;28;19908;-63
2021/08/18 09:04:32;;;;;;;;;;;17.80;99.90;;;;;;5094812;28;19999;-64
2021/08/18 09:07:16;;;;;;;;;;;17.80;99.90;;;;;;5095113;28;19915;-63
2021/08/18 09:09:43;;;;;;;;;;;17.80;99.90;;;;;;5095215;28;19951;-63
2021/08/18 09:12:13;;;;;;;;;;;18.00;99.90;;;;;;5095385;28;19954;-64
2021/08/18 09:14:39;;;;;;;;;;;18.10;99.90;;;;;;5094733;28;20007;-63
2021/08/18 09:17:25;;;;;;;;;;;18.30;99.90;;;;;;5094874;28;19915;-63
2021/08/18 09:19:58;;;;;;;;;;;18.50;99.90;;;;;;5095441;28;19904;-63
2021/08/18 09:22:24;;;;;;;;;;;18.70;99.90;;;;;;5096427;28;20419;-64
2021/08/18 09:24:49;;;;;;;;;;;18.80;99.90;;;;;;5094848;28;20008;-64
2021/08/18 09:27:22;;;;;;;;;;;18.80;99.90;;;;;;5094801;28;19908;-62
2021/08/18 09:29:48;;;;;;;;;;;18.90;99.90;;;;;;5094766;28;19910;-63
2021/08/18 09:32:24;;;;;;;;;;;19.00;99.90;;;;;;5094956;28;19908;-63
2021/08/18 09:34:54;;;;;;;;;;;19.20;99.90;;;;;;5095034;28;20276;-64
2021/08/18 09:37:20;;;;;;;;;;;19.70;99.90;;;;;;5094809;28;19908;-62
2021/08/18 09:39:45;;;;;;;;;;;20.80;99.90;;;;;;5094432;28;19930;-63
2021/08/18 09:42:21;;;;;;;;;;;21.00;99.90;;;;;;5094709;28;19957;-62
2021/08/18 09:44:47;;;;;;;;;;;20.90;99.90;;;;;;5094760;28;19908;-63
2021/08/18 09:47:12;;;;;;;;;;;20.80;99.90;;;;;;5093987;28;19925;-64
2021/08/18 09:49:37;;;;;;;;;;;20.90;99.90;;;;;;5094185;28;19911;-64
2021/08/18 09:52:03;;;;;;;;;;;20.60;99.90;;;;;;5094089;28;19912;-63
2021/08/18 09:54:38;;;;;;;;;;;20.50;99.90;;;;;;5094281;28;20264;-63
2021/08/18 09:57:07;;;;;;;;;;;20.20;99.90;;;;;;5094691;28;19908;-64
2021/08/18 09:59:33;;;;;;;;;;;20.10;99.90;;;;;;5094661;28;19930;-63
2021/08/18 10:01:59;;;;;;;;;;;19.90;99.90;;;;;;5094779;28;19911;-64
2021/08/18 10:04:25;;;;;;;;;;;19.70;99.90;;;;;;5093499;28;19904;-64
2021/08/18 10:06:51;;;;;;;;;;;19.50;99.90;;;;;;5094264;28;19940;-64
2021/08/18 10:09:16;;;;;;;;;;;19.50;99.90;;;;;;5093578;28;19979;-64
2021/08/18 10:11:43;;;;;;;;;;;19.50;99.90;;;;;;5093418;28;20341;-64
2021/08/18 10:14:08;;;;;;;;;;;19.40;99.90;;;;;;5094168;28;20320;-61
2021/08/18 10:16:34;;;;;;;;;;;19.40;99.90;;;;;;5093599;28;19908;-63
2021/08/18 10:19:04;;;;;;;;;;;19.40;99.90;;;;;;5093636;28;20342;-63
2021/08/18 10:21:30;;;;;;;;;;;19.50;99.90;;;;;;5093469;28;19962;-64
2021/08/18 10:23:58;;;;;;;;;;;19.70;99.90;;;;;;5091850;28;20388;-63
2021/08/18 10:26:47;;;;;;;;;;;20.10;99.90;;;;;;5093452;28;20362;-63
2021/08/18 10:29:13;;;;;;;;;;;20.40;99.90;;;;;;5090350;28;20010;-63
2021/08/18 10:31:48;;;;;;;;;;;21.30;99.90;;;;;;5093246;28;20361;-63
2021/08/18 10:34:22;;;;;;;;;;;22.30;99.90;;;;;;5093210;28;20375;-63
2021/08/18 10:36:48;;;;;;;;;;;23.30;99.90;;;;;;5092964;28;19908;-63
2021/08/18 10:39:34;;;;;;;;;;;24.60;99.90;;;;;;5093413;28;19926;-64
2021/08/18 10:42:00;;;;;;;;;;;25.20;99.30;;;;;;5092965;28;20369;-63
2021/08/18 10:44:48;;;;;;;;;;;25.50;98.50;;;;;;5093025;28;19908;-64
2021/08/18 10:47:32;;;;;;;;;;;25.40;97.90;;;;;;5093149;28;19904;-63
2021/08/18 10:50:00;;;;;;;;;;;24.90;98.40;;;;;;5091815;28;19904;-64
2021/08/18 10:52:26;;;;;;;;;;;24.30;99.10;;;;;;5092848;28;19916;-63
2021/08/18 10:55:01;;;;;;;;;;;23.70;99.90;;;;;;5093115;28;19961;-63
2021/08/18 10:57:49;;;;;;;;;;;23.00;99.90;;;;;;5092942;28;20105;-63
2021/08/18 11:00:16;;;;;;;;;;;22.40;99.90;;;;;;5098786;28;19911;-62
2021/08/18 11:02:48;;;;;;;;;;;21.90;99.90;;;;;;5099569;28;19904;-64
2021/08/18 11:05:14;;;;;;;;;;;21.50;99.90;;;;;;5099885;28;20425;-64
2021/08/18 11:07:58;;;;;;;;;;;21.20;99.90;;;;;;5099477;28;19904;-64
2021/08/18 11:10:23;;;;;;;;;;;21.00;99.90;;;;;;5099741;28;20362;-65
2021/08/18 11:12:49;;;;;;;;;;;20.70;99.90;;;;;;5099464;28;19904;-64
2021/08/18 11:15:14;;;;;;;;;;;20.70;99.90;;;;;;5099648;28;19904;-62
2021/08/18 11:17:42;;;;;;;;;;;20.60;99.90;;;;;;5099271;28;20024;-64
2021/08/18 11:20:09;;;;;;;;;;;20.30;99.90;;;;;;5099449;28;19986;-64
2021/08/18 11:22:34;;;;;;;;;;;20.40;99.90;;;;;;5101572;28;20237;-64
2021/08/18 11:25:03;;;;;;;;;;;20.40;99.90;;;;;;5099580;28;19911;-64
2021/08/18 11:27:28;;;;;;;;;;;20.60;99.90;;;;;;5099554;28;19904;-61
2021/08/18 11:29:55;;;;;;;;;;;20.80;99.90;;;;;;5099307;28;20011;-63
2021/08/18 11:32:24;;;;;;;;;;;20.90;99.90;;;;;;5099276;28;19979;-62
2021/08/18 11:34:50;;;;;;;;;;;20.90;99.90;;;;;;5099387;28;19926;-63
2021/08/18 11:37:15;;;;;;;;;;;20.70;99.90;;;;;;5100339;28;20022;-63
2021/08/18 11:39:44;;;;;;;;;;;20.60;99.90;;;;;;5099748;28;19982;-63
2021/08/18 11:42:13;;;;;;;;;;;20.40;99.90;;;;;;5099489;28;19908;-63
2021/08/18 11:44:39;;;;;;;;;;;20.40;99.90;;;;;;5100626;28;19926;-64
2021/08/18 11:47:06;;;;;;;;;;;20.50;99.90;;;;;;5099515;28;19911;-64
2021/08/18 11:49:32;;;;;;;;;;;20.70;99.90;;;;;;5099986;28;19954;-64
2021/08/18 11:51:57;;;;;;;;;;;20.90;99.90;;;;;;5099058;28;19912;-65
2021/08/18 11:54:24;;;;;;;;;;;21.00;99.90;;;;;;5098860;28;19909;-64
2021/08/18 11:57:06;;;;;;;;;;;21.00;99.90;;;;;;5098959;28;19919;-64
2021/08/18 11:59:32;;;;;;;;;;;21.00;99.90;;;;;;5099525;28;19904;-64
2021/08/18 12:01:57;;;;;;;;;;;21.10;99.90;;;;;;5099348;28;19926;-64
2021/08/18 12:04:23;;;;;;;;;;;21.10;99.90;;;;;;5098858;28;19904;-64
2021/08/18 12:07:10;;;;;;;;;;;21.30;99.90;;;;;;5099299;28;20121;-64
2021/08/18 12:09:36;;;;;;;;;;;21.40;99.90;;;;;;5099001;28;20384;-64
2021/08/18 12:12:08;;;;;;;;;;;21.40;99.90;;;;;;5095223;28;19904;-64
2021/08/18 12:14:38;;;;;;;;;;;21.30;99.90;;;;;;5096985;28;19948;-64
2021/08/18 12:17:04;;;;;;;;;;;21.30;99.90;;;;;;5095580;28;19958;-64
2021/08/18 12:19:34;;;;;;;;;;;21.20;99.90;;;;;;5095698;28;19911;-64
2021/08/18 12:22:03;;;;;;;;;;;21.10;99.90;;;;;;5094215;28;19911;-64
2021/08/18 12:24:28;;;;;;;;;;;20.90;99.90;;;;;;5095983;28;19918;-64
2021/08/18 12:27:01;;;;;;;;;;;20.70;99.90;;;;;;5094656;28;19904;-63
2021/08/18 12:29:30;;;;;;;;;;;20.50;99.90;;;;;;5095707;28;19908;-64
2021/08/18 12:31:57;;;;;;;;;;;20.30;99.90;;;;;;5095985;28;19915;-63
2021/08/18 12:34:30;;;;;;;;;;;20.10;99.90;;;;;;5095821;28;20055;-63
2021/08/18 12:37:04;;;;;;;;;;;20.00;99.90;;;;;;5095349;28;20380;-63
2021/08/18 12:39:34;;;;;;;;;;;20.00;99.90;;;;;;5093923;28;20388;-63
2021/08/18 12:42:00;;;;;;;;;;;20.10;99.90;;;;;;5095374;28;19998;-63
2021/08/18 12:44:30;;;;;;;;;;;20.10;99.90;;;;;;5094867;28;19975;-63
2021/08/18 12:47:05;;;;;;;;;;;20.10;99.90;;;;;;5095289;28;19958;-63
2021/08/18 12:49:31;;;;;;;;;;;20.00;99.90;;;;;;5095425;28;19904;-64
2021/08/18 12:51:58;;;;;;;;;;;19.80;99.90;;;;;;5093502;28;20377;-63
2021/08/18 12:54:24;;;;;;;;;;;19.60;99.90;;;;;;5095197;28;20344;-63
2021/08/18 12:56:50;;;;;;;;;;;19.60;99.90;;;;;;5094656;28;19927;-63
2021/08/18 12:59:15;;;;;;;;;;;19.80;99.90;;;;;;5094834;28;20293;-64
2021/08/18 13:01:41;;;;;;;;;;;20.10;99.90;;;;;;5094732;28;19964;-64
2021/08/18 13:04:06;;;;;;;;;;;20.50;99.90;;;;;;5095062;28;19903;-64
2021/08/18 13:06:32;;;;;;;;;;;20.70;99.90;;;;;;5094927;28;20345;-64
2021/08/18 13:08:57;;;;;;;;;;;20.70;99.90;;;;;;5094438;28;19904;-63
2021/08/18 13:11:23;;;;;;;;;;;20.70;99.90;;;;;;5093481;28;19907;-63
2021/08/18 13:13:48;;;;;;;;;;;20.70;99.90;;;;;;5094765;28;19994;-62
2021/08/18 13:16:14;;;;;;;;;;;20.70;99.90;;;;;;5094651;28;19999;-63
2021/08/18 13:18:39;;;;;;;;;;;20.80;99.90;;;;;;5093297;28;19962;-64
2021/08/18 13:21:05;;;;;;;;;;;21.00;99.90;;;;;;5094885;28;19939;-64
2021/08/18 13:23:30;;;;;;;;;;;21.30;99.90;;;;;;5093232;28;19904;-64
2021/08/18 13:25:56;;;;;;;;;;;21.40;99.90;;;;;;5094790;28;19915;-63
2021/08/18 13:28:22;;;;;;;;;;;21.40;99.90;;;;;;5094534;28;19904;-63
2021/08/18 13:30:47;;;;;;;;;;;21.40;99.90;;;;;;5094980;28;19904;-63
2021/08/18 13:33:13;;;;;;;;;;;21.40;99.90;;;;;;5094417;28;19904;-63
2021/08/18 13:35:38;;;;;;;;;;;21.40;99.90;;;;;;5094422;28;19904;-63
2021/08/18 13:38:04;;;;;;;;;;;21.30;99.90;;;;;;5094695;28;19908;-68
2021/08/18 13:40:31;;;;;;;;;;;21.30;99.90;;;;;;5094181;28;19927;-64
2021/08/18 13:42:57;;;;;;;;;;;21.30;99.90;;;;;;5093890;28;19904;-64
2021/08/18 13:45:22;;;;;;;;;;;21.50;99.90;;;;;;5093942;28;19904;-63
2021/08/18 13:47:48;;;;;;;;;;;21.60;99.90;;;;;;5093916;28;20258;-64
2021/08/18 13:50:13;;;;;;;;;;;21.60;99.90;;;;;;5094256;28;19904;-64
2021/08/18 13:52:39;;;;;;;;;;;21.70;99.90;;;;;;5093746;28;19958;-64
2021/08/18 13:55:04;;;;;;;;;;;21.70;99.90;;;;;;5094332;28;19996;-64
2021/08/18 13:57:30;;;;;;;;;;;21.80;99.90;;;;;;5094244;28;19911;-63
2021/08/18 13:59:55;;;;;;;;;;;21.90;99.90;;;;;;5092896;28;19908;-64
2021/08/18 14:02:21;;;;;;;;;;;21.90;99.90;;;;;;5093821;28;19904;-64
2021/08/18 14:04:46;;;;;;;;;;;21.90;99.90;;;;;;5093801;28;19904;-64
2021/08/18 14:07:12;;;;;;;;;;;21.90;99.90;;;;;;5094119;28;19904;-64
2021/08/18 14:09:37;;;;;;;;;;;22.00;99.90;;;;;;5093663;28;19904;-64
2021/08/18 14:12:03;;;;;;;;;;;22.00;99.90;;;;;;5093792;28;19904;-64
2021/08/18 14:14:29;;;;;;;;;;;21.80;99.90;;;;;;5093842;28;19911;-63